createdAt,value
2018-04-07T00:01:36.309Z,6.77
2018-04-07T00:06:39.515Z,8.87
2018-04-07T00:11:42.734Z,8.47
2018-04-07T00:16:46.065Z,9.63
2018-04-07T00:21:49.674Z,8.63
2018-04-07T00:26:53.393Z,11.20
2018-04-07T00:31:57.075Z,8.63
2018-04-07T00:37:00.301Z,8.77
2018-04-07T00:42:03.514Z,7.40
2018-04-07T00:47:07.144Z,12.20
2018-04-07T00:52:10.768Z,9.37
2018-04-07T00:57:15.245Z,9.23
2018-04-07T01:02:18.512Z,11.37
2018-04-07T01:07:21.797Z,9.93
2018-04-07T01:12:25.153Z,10.73
2018-04-07T01:17:28.478Z,11.80
2018-04-07T01:22:31.710Z,8.53
2018-04-07T01:27:35.016Z,10.27
2018-04-07T01:32:38.229Z,9.10
2018-04-07T01:37:41.539Z,7.13
2018-04-07T01:42:45.349Z,9.53
2018-04-07T01:47:48.576Z,8.63
2018-04-07T01:52:52.312Z,9.37
2018-04-07T01:57:55.584Z,8.90
2018-04-07T02:02:58.810Z,9.30
2018-04-07T02:08:04.114Z,8.03
2018-04-07T02:13:07.361Z,12.73
2018-04-07T02:18:11.009Z,10.63
2018-04-07T02:23:14.229Z,12.53
2018-04-07T02:28:17.444Z,10.87
2018-04-07T02:33:20.678Z,12.50
2018-04-07T02:38:23.906Z,12.93
2018-04-07T02:43:27.523Z,13.43
2018-04-07T02:48:30.742Z,11.40
2018-04-07T02:53:33.993Z,11.90
2018-04-07T02:58:37.329Z,14.30
2018-04-07T03:03:40.932Z,11.87
2018-04-07T03:08:44.152Z,12.47
2018-04-07T03:13:47.752Z,10.13
2018-04-07T03:18:51.075Z,10.43
2018-04-07T03:23:54.701Z,13.13
2018-04-07T03:28:58.375Z,13.87
2018-04-07T03:34:01.599Z,11.57
2018-04-07T03:39:05.243Z,10.67
2018-04-07T03:44:08.464Z,14.10
2018-04-07T03:49:11.715Z,10.80
2018-04-07T03:54:14.925Z,10.43
2018-04-07T03:59:18.284Z,14.13
2018-04-07T04:04:21.631Z,17.40
2018-04-07T04:09:24.865Z,14.47
2018-04-07T04:14:28.507Z,12.57
2018-04-07T04:19:31.745Z,14.63
2018-04-07T04:24:35.078Z,15.83
2018-04-07T04:29:38.526Z,14.10
2018-04-07T04:34:41.759Z,13.93
2018-04-07T04:39:45.078Z,15.90
2018-04-07T04:44:48.312Z,14.23
2018-04-07T04:49:51.531Z,16.43
2018-04-07T04:54:54.841Z,18.77
2018-04-07T04:59:58.458Z,15.17
2018-04-07T05:05:02.051Z,16.40
2018-04-07T05:10:05.676Z,17.27
2018-04-07T05:15:09.483Z,13.43
2018-04-07T05:20:12.959Z,17.70
2018-04-07T05:25:16.161Z,17.07
2018-04-07T05:30:19.610Z,16.53
2018-04-07T05:35:22.840Z,14.37
2018-04-07T05:40:26.571Z,17.57
2018-04-07T05:45:29.840Z,17.47
2018-04-07T05:50:33.596Z,17.97
2018-04-07T05:55:36.839Z,18.23
2018-04-07T06:00:40.056Z,16.73
2018-04-07T06:05:44.570Z,13.97
2018-04-07T06:10:52.556Z,16.17
2018-04-07T06:15:55.765Z,15.83
2018-04-07T06:20:59.154Z,14.90
2018-04-07T06:26:02.853Z,19.23
2018-04-07T06:31:06.084Z,17.27
2018-04-07T06:36:09.336Z,14.63
2018-04-07T06:41:12.553Z,21.80
2018-04-07T06:46:15.827Z,15.57
2018-04-07T06:51:19.061Z,16.33
2018-04-07T06:56:22.430Z,20.27
2018-04-07T07:01:25.657Z,14.13
2018-04-07T07:06:28.864Z,17.03
2018-04-07T07:11:32.103Z,17.23
2018-04-07T07:16:35.321Z,19.27
2018-04-07T07:21:38.979Z,17.73
2018-04-07T07:26:42.221Z,17.10
2018-04-07T07:31:45.456Z,15.80
2018-04-07T07:36:49.169Z,18.83
2018-04-07T07:41:52.785Z,15.43
2018-04-07T07:46:56.047Z,16.00
2018-04-07T07:51:59.287Z,18.37
2018-04-07T07:57:02.500Z,19.87
2018-04-07T08:02:06.114Z,17.53
2018-04-07T08:07:09.335Z,15.37
2018-04-07T08:12:13.010Z,19.53
2018-04-07T08:17:16.339Z,15.00
2018-04-07T08:22:19.543Z,16.87
2018-04-07T08:27:22.767Z,17.70
2018-04-07T08:32:26.376Z,16.73
2018-04-07T08:37:29.994Z,15.23
2018-04-07T08:42:33.592Z,19.10
2018-04-07T08:47:36.904Z,19.20
2018-04-07T08:52:40.524Z,17.67
2018-04-07T08:57:44.142Z,15.77
2018-04-07T09:02:47.948Z,17.27
2018-04-07T09:07:51.598Z,16.53
2018-04-07T09:12:54.808Z,18.07
2018-04-07T09:17:58.048Z,20.33
2018-04-07T09:23:01.272Z,14.33
2018-04-07T09:28:04.504Z,18.40
2018-04-07T09:33:08.161Z,18.03
2018-04-07T09:38:11.373Z,18.73
2018-04-07T09:43:14.611Z,16.10
2018-04-07T09:48:17.889Z,15.67
2018-04-07T09:53:21.244Z,15.60
2018-04-07T09:58:24.921Z,15.87
2018-04-07T10:03:28.224Z,17.33
2018-04-07T10:08:31.494Z,17.27
2018-04-07T10:13:34.753Z,17.90
2018-04-07T10:18:38.082Z,19.50
2018-04-07T10:23:41.713Z,18.75
2018-04-07T10:28:44.927Z,15.98
2018-04-07T10:33:48.157Z,14.63
2018-04-07T10:38:51.392Z,14.18
2018-04-07T10:43:54.629Z,15.90
2018-04-07T10:48:58.337Z,16.42
2018-04-07T10:54:02.021Z,18.83
2018-04-07T10:59:05.247Z,15.68
2018-04-07T11:04:08.463Z,17.10
2018-04-07T11:09:12.068Z,13.57
2018-04-07T11:14:15.353Z,16.30
2018-04-07T11:19:18.593Z,15.80
2018-04-07T11:24:22.272Z,15.73
2018-04-07T11:29:25.503Z,18.45
2018-04-07T11:34:28.716Z,15.18
2018-04-07T11:39:37.442Z,14.82
2018-04-07T11:50:12.288Z,16.98
2018-04-07T11:55:15.834Z,15.85
2018-04-07T12:00:19.537Z,13.95
2018-04-07T12:05:22.899Z,17.17
2018-04-07T12:10:26.137Z,14.70
2018-04-07T12:15:29.573Z,15.35
2018-04-07T12:20:32.898Z,15.40
2018-04-07T12:25:36.645Z,15.23
2018-04-07T12:30:40.082Z,13.98
2018-04-07T12:35:43.845Z,14.93
2018-04-07T12:40:47.664Z,13.90
2018-04-07T12:45:50.968Z,16.00
2018-04-07T12:50:54.774Z,16.50
2018-04-07T12:55:58.066Z,18.10
2018-04-07T13:01:01.819Z,15.15
2018-04-07T13:06:05.516Z,14.57
2018-04-07T13:11:08.861Z,15.63
2018-04-07T13:16:12.438Z,17.42
2018-04-07T13:21:16.175Z,18.08
2018-04-07T13:26:19.852Z,21.10
2018-04-07T13:31:23.191Z,16.40
2018-04-07T13:36:26.829Z,18.25
2018-04-07T13:41:30.056Z,19.95
2018-04-07T13:46:33.309Z,18.30
2018-04-07T13:51:36.529Z,24.20
2018-04-07T13:56:40.156Z,22.48
2018-04-07T14:01:43.428Z,20.52
2018-04-07T14:06:46.670Z,20.00
2018-04-07T14:11:49.883Z,18.30
2018-04-07T14:16:53.136Z,20.42
2018-04-07T14:21:56.375Z,16.85
2018-04-07T14:27:00.090Z,19.40
2018-04-07T14:32:03.792Z,18.02
2018-04-07T14:37:07.029Z,18.33
2018-04-07T14:42:10.248Z,21.50
2018-04-07T14:47:13.488Z,22.35
2018-04-07T14:57:51.199Z,21.73
2018-04-07T15:02:54.593Z,20.02
2018-04-07T15:07:57.833Z,23.77
2018-04-07T15:13:01.069Z,18.08
2018-04-07T15:18:04.303Z,20.90
2018-04-07T15:23:07.521Z,18.65
2018-04-07T15:28:10.736Z,21.35
2018-04-07T15:33:14.060Z,20.23
2018-04-07T15:38:17.287Z,17.80
2018-04-07T15:43:20.495Z,17.08
2018-04-07T15:48:23.777Z,17.55
2018-04-07T15:53:26.979Z,20.50
2018-04-07T15:58:30.215Z,17.00
2018-04-07T16:03:33.639Z,15.35
2018-04-07T16:08:36.888Z,18.00
2018-04-07T16:13:40.109Z,12.95
2018-04-07T16:18:43.344Z,15.07
2018-04-07T16:23:46.573Z,18.73
2018-04-07T16:28:50.281Z,16.58
2018-04-07T16:33:54.153Z,21.62
2018-04-07T16:38:57.375Z,21.77
2018-04-07T16:44:00.713Z,19.87
2018-04-07T16:49:03.928Z,22.67
2018-04-07T16:54:07.547Z,19.37
2018-04-07T16:59:11.254Z,20.12
2018-04-07T17:04:14.868Z,27.52
2018-04-07T17:09:18.116Z,25.77
2018-04-07T17:14:21.357Z,23.30
2018-04-07T17:19:24.598Z,26.45
2018-04-07T17:24:28.241Z,23.85
2018-04-07T17:29:31.472Z,22.00
2018-04-07T17:34:34.689Z,26.67
2018-04-07T17:39:37.916Z,28.23
2018-04-07T17:44:41.227Z,25.42
2018-04-07T17:49:44.447Z,24.63
2018-04-07T17:54:48.070Z,23.67
2018-04-07T17:59:51.312Z,27.23
2018-04-07T18:04:54.549Z,26.95
2018-04-07T18:09:57.781Z,25.83
2018-04-07T18:15:01.081Z,19.33
2018-04-07T18:20:04.738Z,24.25
2018-04-07T18:25:08.089Z,51.30
2018-04-07T18:30:11.798Z,54.90
2018-04-07T18:35:15.031Z,39.50
2018-04-07T18:40:18.658Z,28.52
2018-04-07T18:45:21.871Z,33.72
2018-04-07T18:50:25.102Z,146.20
2018-04-07T18:55:28.346Z,167.75
2018-04-07T19:00:32.643Z,98.75
2018-04-07T19:05:35.859Z,92.53
2018-04-07T19:10:39.076Z,95.00
2018-04-07T19:15:42.317Z,135.63
2018-04-07T19:20:45.613Z,29.63
2018-04-07T19:25:49.807Z,9.98
2018-04-07T19:30:53.045Z,9.65
2018-04-07T19:35:56.730Z,13.68
2018-04-07T19:40:59.932Z,15.55
2018-04-07T19:46:03.165Z,19.08
2018-04-07T19:51:06.380Z,14.63
2018-04-07T19:56:10.088Z,11.80
2018-04-07T20:01:13.313Z,10.02
2018-04-07T20:06:17.012Z,8.57
2018-04-07T20:11:20.250Z,13.13
2018-04-07T20:16:23.477Z,15.10
2018-04-07T20:21:26.687Z,16.58
2018-04-07T20:26:29.931Z,14.40
2018-04-07T20:31:33.348Z,12.90
2018-04-07T20:36:36.967Z,12.85
2018-04-07T20:41:40.676Z,12.10
2018-04-07T20:46:43.915Z,12.70
2018-04-07T20:51:47.136Z,13.07
2018-04-07T20:56:50.345Z,12.98
2018-04-07T21:01:53.580Z,15.55
2018-04-07T21:06:56.807Z,14.73
2018-04-07T21:12:00.036Z,14.32
2018-04-07T21:17:03.253Z,19.98
2018-04-07T21:22:06.488Z,23.25
2018-04-07T21:27:09.712Z,19.25
2018-04-07T21:32:13.182Z,20.65
2018-04-07T21:37:16.406Z,24.70
2018-04-07T21:42:19.627Z,21.87
2018-04-07T21:47:22.864Z,19.70
2018-04-07T21:52:26.503Z,17.85
2018-04-07T21:57:29.736Z,18.70
2018-04-07T22:02:32.966Z,20.30
2018-04-07T22:07:36.197Z,19.45
2018-04-07T22:12:39.894Z,17.00
2018-04-07T22:17:43.360Z,15.68
2018-04-07T22:22:46.904Z,22.33
2018-04-07T22:27:50.341Z,18.15
2018-04-07T22:32:53.823Z,18.00
2018-04-07T22:37:57.253Z,18.83
2018-04-07T22:43:00.696Z,14.90
2018-04-07T22:48:04.367Z,16.30
2018-04-07T22:53:07.629Z,19.97
2018-04-07T22:58:10.852Z,14.03
2018-04-07T23:03:14.971Z,14.93
2018-04-07T23:08:18.438Z,19.60
2018-04-07T23:13:21.847Z,19.57
2018-04-07T23:18:25.341Z,22.10
2018-04-07T23:23:33.520Z,20.87
2018-04-07T23:28:38.080Z,15.00
2018-04-07T23:33:41.517Z,13.13
2018-04-07T23:38:45.046Z,13.77
2018-04-07T23:43:48.673Z,13.90
2018-04-07T23:48:52.280Z,12.90
2018-04-07T23:53:55.886Z,12.77
2018-04-07T23:58:59.104Z,13.03
